Airfield :
LOGIN :

Register | Disclaimer

   EN    FR    IT 

 










Legend :    VFR   Marginal VFR   IFR   Intensive IFR   Very Intensive IFR
Visi :
Ceiling :
>= 8 km
>= 3000ft
5 to 8 km
1000 to 3000 ft
1500m to 5 km
500 to 1000 ft
800 to 1500m
200 to 500 ft
< 800m
< 200 ft
Symbols :   Thunderstorms  Fog  Heavy snow  Heavy precipitations  Wind > 20 kt
SIGMETs :     Misc.  Thunderstorms  Icing  Turbulence  Mountain Waves  Volcanic Ashes






- Airport Elevation : 242 ft
- IATA code : DUB


EIDW - Dublin

CURRENT METAR :
  • 182300Z 25012KT 9999 FEW016 BKN250 02/M00 Q1016 NOSIG

EXPIRED METARs :
  • 182230Z 26012KT 220V280 9999 FEW016 BKN240 02/M00 Q1016 NOSIG
  • 182200Z 25012KT 9999 FEW016 SCT050 BKN240 02/M00 Q1016 NOSIG
  • 182130Z 25011KT 9999 FEW016 SCT045 02/M00 Q1015 NOSIG
  • 182100Z 25012KT 230V290 9999 FEW016 SCT045 03/00 Q1015 NOSIG
  • 182030Z 25011KT 210V280 9999 FEW016 SCT045 03/00 Q1015 NOSIG

TAF TAF EIDW
Valid from the 18 at 18:00 until the 19 at 18:00 UTC


181700Z 1818/1918 27018KT 9999 FEW020 BKN040
TEMPO 1818/1821 27018G28KT
PROB40
TEMPO 1818/1820 -SHRA SCT018CB
BECMG 1822/1824 25013KT
BECMG 1906/1908 22012KT
BECMG 1908/1910 19012KT
TEMPO 1909/1918 -RA BKN013
BECMG 1910/1912 21018G30KT
TEMPO 1912/1918 22022G35KT



MET'MAP, your aeronautical weather chart ! - Copyright ORBIFLY December 2007 - Disclaimer

ORBIFLY MET'MAP TEAM :

Programming & Development : Alexandra Zaïnal
Concept & original design : Baudouin d'Aumeries
Assistance for programming : Marc-Olivier Méhu
Technical & hardware support : Manuel Goepfert

Contact : metmap@orbifly.com




SOURCES & CREDITS :

   NOAA